Time;durP1;ratioP1;P1;durP2;ratioP2;P2;SDS_P1;SDS_P2;PMS_P1;PMS_P2;Temp;Humidity;BMP_temperature;BMP_pressure;BME280_temperature;BME280_humidity;BME280_pressure;Samples;Min_cycle;Max_cycle;Signal;HPM_P1;HPM_P2
2023/10/21 00:02:26;;;;;;;3.20;1.00;;;;;;;11.16;100.00;94715.19;5050762;28;20049;-64
2023/10/21 00:04:52;;;;;;;1.83;0.63;;;;;;;11.21;100.00;94705.28;5042682;28;20056;-64
2023/10/21 00:07:19;;;;;;;2.20;0.63;;;;;;;11.40;100.00;94718.47;5045342;28;20123;-68
2023/10/21 00:09:45;;;;;;;1.08;0.50;;;;;;;11.54;100.00;94710.94;5051014;28;20033;-63
2023/10/21 00:12:12;;;;;;;2.30;0.50;;;;;;;11.65;100.00;94710.59;5058662;28;20117;-64
2023/10/21 00:14:38;;;;;;;2.10;0.50;;;;;;;11.65;100.00;94708.66;5044816;28;20032;-63
2023/10/21 00:17:05;;;;;;;0.85;0.40;;;;;;;11.79;100.00;94722.00;5055961;28;20041;-64
2023/10/21 00:19:32;;;;;;;0.82;0.25;;;;;;;11.88;100.00;94716.56;5042306;28;20748;-64
2023/10/21 00:21:59;;;;;;;2.05;0.40;;;;;;;11.92;100.00;94711.28;5043211;28;20513;-64
2023/10/21 00:24:25;;;;;;;0.68;0.20;;;;;;;12.14;100.00;94729.22;5042481;28;20045;-64
2023/10/21 00:26:52;;;;;;;0.43;0.20;;;;;;;12.42;100.00;94731.44;5048617;28;20474;-64
2023/10/21 00:29:20;;;;;;;0.30;0.20;;;;;;;12.56;100.00;94733.91;5043705;28;20041;-64
2023/10/21 00:31:46;;;;;;;0.65;0.20;;;;;;;12.60;100.00;94737.56;5059861;28;20559;-64
2023/10/21 00:34:13;;;;;;;0.13;0.08;;;;;;;12.63;100.00;94738.03;5051157;28;20058;-64
2023/10/21 00:36:41;;;;;;;0.45;0.30;;;;;;;12.56;100.00;94744.78;5036106;28;20041;-64
2023/10/21 00:39:10;;;;;;;1.17;0.20;;;;;;;12.76;100.00;94764.13;5051926;28;20500;-64
2023/10/21 00:41:38;;;;;;;1.63;0.30;;;;;;;12.79;100.00;94755.31;5045759;28;20112;-64
2023/10/21 00:44:05;;;;;;;0.13;0.10;;;;;;;12.70;100.00;94762.72;5059752;28;20068;-65
2023/10/21 00:46:32;;;;;;;0.70;0.30;;;;;;;12.74;100.00;94767.19;5044296;28;20057;-63
2023/10/21 00:49:00;;;;;;;0.80;0.20;;;;;;;12.68;100.00;94773.13;5046515;28;20110;-64
2023/10/21 00:51:27;;;;;;;0.25;0.10;;;;;;;12.85;100.00;94781.16;5045434;28;20041;-64
2023/10/21 00:53:56;;;;;;;0.30;0.20;;;;;;;12.84;100.00;94793.16;5040663;28;20033;-64
2023/10/21 00:56:23;;;;;;;0.32;0.10;;;;;;;12.82;100.00;94791.88;5055135;28;20847;-64
2023/10/21 00:58:50;;;;;;;0.17;0.10;;;;;;;12.89;100.00;94797.56;5048884;28;20128;-63
2023/10/21 01:01:17;;;;;;;0.10;0.10;;;;;;;12.98;100.00;94800.25;5049406;28;20048;-63
2023/10/21 01:03:44;;;;;;;0.68;0.20;;;;;;;13.00;100.00;94814.28;5043030;28;20040;-63
2023/10/21 01:06:10;;;;;;;1.45;0.20;;;;;;;13.00;100.00;94822.41;5045213;28;20063;-63
2023/10/21 01:08:42;;;;;;;0.03;0.00;;;;;;;12.98;100.00;94838.28;5040807;28;20135;-63
2023/10/21 01:11:09;;;;;;;0.38;0.10;;;;;;;13.04;100.00;94838.88;5042810;28;20512;-63
2023/10/21 01:13:36;;;;;;;0.13;0.10;;;;;;;13.05;100.00;94835.81;5047872;28;20037;-63
2023/10/21 01:16:03;;;;;;;0.35;0.10;;;;;;;13.01;100.00;94848.44;5045190;28;20044;-65
2023/10/21 01:18:33;;;;;;;0.30;0.10;;;;;;;13.10;100.00;94849.22;5045422;28;20037;-64
2023/10/21 01:21:03;;;;;;;0.20;0.13;;;;;;;13.07;100.00;94855.28;5047249;28;20060;-64
2023/10/21 01:23:31;;;;;;;0.10;0.10;;;;;;;13.16;100.00;94859.88;5044407;28;20130;-64
2023/10/21 01:25:58;;;;;;;0.57;0.15;;;;;;;13.05;100.00;94849.38;5044926;28;20056;-64
2023/10/21 01:28:25;;;;;;;1.25;0.10;;;;;;;13.03;100.00;94853.56;5045212;28;20043;-64
2023/10/21 01:30:52;;;;;;;0.70;0.17;;;;;;;13.01;100.00;94857.41;5050785;28;20036;-65
2023/10/21 01:33:19;;;;;;;0.00;0.00;;;;;;;13.01;100.00;94856.59;5063803;28;20755;-64
2023/10/21 01:35:46;;;;;;;2.38;0.20;;;;;;;13.00;100.00;94858.53;5048118;28;20033;-64
2023/10/21 01:38:13;;;;;;;0.73;0.25;;;;;;;12.98;100.00;94862.72;5055152;28;20037;-65
2023/10/21 01:40:39;;;;;;;0.75;0.08;;;;;;;12.95;100.00;94868.78;5051468;28;20052;-64
2023/10/21 01:43:06;;;;;;;0.10;0.10;;;;;;;12.99;100.00;94873.25;5055609;28;20508;-65
2023/10/21 01:45:36;;;;;;;0.35;0.10;;;;;;;12.93;100.00;94871.06;5053444;28;20071;-64
2023/10/21 01:48:05;;;;;;;0.38;0.10;;;;;;;12.92;100.00;94880.31;5046362;28;20040;-64
2023/10/21 01:50:32;;;;;;;0.88;0.25;;;;;;;12.94;100.00;94880.78;5032015;28;20538;-65
2023/10/21 01:52:58;;;;;;;0.28;0.10;;;;;;;12.90;100.00;94888.78;5017958;28;20051;-64
2023/10/21 01:55:25;;;;;;;0.45;0.10;;;;;;;12.90;100.00;94898.88;5015170;28;20041;-65
2023/10/21 01:57:51;;;;;;;0.00;0.00;;;;;;;12.84;100.00;94893.63;5056806;28;20032;-63
2023/10/21 02:00:18;;;;;;;1.27;0.20;;;;;;;12.82;100.00;94897.78;5035773;28;20063;-64
2023/10/21 02:02:56;;;;;;;1.83;0.20;;;;;;;12.68;100.00;94915.09;5050751;28;20037;-64
2023/10/21 02:05:24;;;;;;;0.30;0.10;;;;;;;12.70;100.00;94926.44;5057304;28;20037;-63
2023/10/21 02:07:51;;;;;;;0.65;0.63;;;;;;;12.71;100.00;94929.91;5057192;28;20047;-64
2023/10/21 02:10:18;;;;;;;1.95;0.25;;;;;;;12.63;100.00;94938.94;5055742;28;20045;-64
2023/10/21 02:12:44;;;;;;;0.40;0.17;;;;;;;12.63;100.00;94944.34;5045130;28;20602;-64
2023/10/21 02:15:17;;;;;;;1.95;0.17;;;;;;;12.61;100.00;94959.03;5044536;28;20120;-63
2023/10/21 02:17:44;;;;;;;0.13;0.10;;;;;;;12.59;100.00;94950.44;5043542;28;20075;-63
2023/10/21 02:20:13;;;;;;;0.20;0.10;;;;;;;12.67;100.00;94967.00;5054360;28;20496;-64
2023/10/21 02:22:40;;;;;;;0.10;0.10;;;;;;;12.58;100.00;94965.13;5050409;28;20075;-63
2023/10/21 02:25:15;;;;;;;1.30;0.30;;;;;;;12.56;100.00;94971.97;5041242;28;20488;-64
2023/10/21 02:27:42;;;;;;;0.35;0.20;;;;;;;12.55;100.00;94979.34;5045101;28;20756;-64
2023/10/21 02:30:14;;;;;;;0.00;0.00;;;;;;;12.49;100.00;94986.84;5044009;28;20122;-65
2023/10/21 02:32:46;;;;;;;0.82;0.15;;;;;;;12.39;100.00;94986.41;5035178;28;20037;-63
2023/10/21 02:35:13;;;;;;;1.67;0.10;;;;;;;12.32;100.00;94998.53;5049415;28;20033;-63
2023/10/21 02:37:41;;;;;;;0.25;0.17;;;;;;;12.31;100.00;95007.00;5059791;28;20397;-64
2023/10/21 02:40:09;;;;;;;0.57;0.20;;;;;;;12.27;100.00;95019.63;5052336;28;20539;-64
2023/10/21 02:42:37;;;;;;;0.17;0.10;;;;;;;12.27;100.00;95022.34;5054752;28;20045;-64
2023/10/21 02:45:04;;;;;;;0.52;0.10;;;;;;;12.25;100.00;95028.09;5047433;28;20045;-64
2023/10/21 02:47:31;;;;;;;0.20;0.10;;;;;;;12.23;100.00;95036.53;5045651;28;20522;-64
2023/10/21 02:49:57;;;;;;;0.28;0.10;;;;;;;12.38;100.00;95037.16;5054083;28;20052;-64
2023/10/21 02:52:24;;;;;;;0.63;0.25;;;;;;;12.36;100.00;95037.47;5059723;28;20516;-64
2023/10/21 02:54:51;;;;;;;0.40;0.17;;;;;;;12.22;100.00;95045.00;5059830;28;20090;-64
2023/10/21 02:57:17;;;;;;;0.30;0.10;;;;;;;12.08;100.00;95051.38;5053901;28;20045;-64
2023/10/21 02:59:45;;;;;;;0.95;0.20;;;;;;;12.05;100.00;95046.59;5045914;28;20055;-64
2023/10/21 03:02:13;;;;;;;1.77;0.20;;;;;;;11.90;100.00;95052.47;5056087;28;20049;-64
2023/10/21 03:04:40;;;;;;;0.17;0.17;;;;;;;11.89;100.00;95050.84;5062226;28;20507;-64
2023/10/21 03:07:06;;;;;;;0.52;0.30;;;;;;;11.82;100.00;95059.47;5048729;28;20055;-63
2023/10/21 03:09:33;;;;;;;2.10;0.25;;;;;;;11.91;100.00;95062.19;5056966;28;20052;-64
2023/10/21 03:12:00;;;;;;;0.63;0.17;;;;;;;11.96;100.00;95060.13;5058814;28;20041;-64
2023/10/21 03:14:27;;;;;;;0.82;0.30;;;;;;;11.95;100.00;95063.94;5046461;28;20041;-64
2023/10/21 03:16:54;;;;;;;6.07;1.00;;;;;;;11.92;100.00;95066.50;5050302;28;20047;-64
2023/10/21 03:19:20;;;;;;;1.27;0.30;;;;;;;11.90;100.00;95069.50;5050065;28;20089;-63
2023/10/21 03:21:47;;;;;;;0.20;0.13;;;;;;;11.94;100.00;95069.69;5058620;28;20042;-64
2023/10/21 03:24:13;;;;;;;0.75;0.20;;;;;;;11.96;100.00;95081.00;5063086;28;20040;-64
2023/10/21 03:26:40;;;;;;;0.45;0.10;;;;;;;11.94;100.00;95084.03;5061381;28;20122;-64
2023/10/21 03:29:08;;;;;;;0.35;0.10;;;;;;;11.93;100.00;95079.75;5055220;28;20139;-64
2023/10/21 03:31:37;;;;;;;0.35;0.20;;;;;;;11.88;100.00;95084.50;5057526;28;20124;-63
2023/10/21 03:34:04;;;;;;;0.85;0.17;;;;;;;11.78;100.00;95089.13;5056802;28;20075;-64
2023/10/21 03:36:30;;;;;;;0.38;0.10;;;;;;;11.67;100.00;95091.34;5054193;28;20044;-63
2023/10/21 03:38:57;;;;;;;0.20;0.15;;;;;;;11.69;100.00;95094.50;5064085;28;20118;-63
2023/10/21 03:41:23;;;;;;;1.23;0.20;;;;;;;11.63;100.00;95100.41;5050139;28;20056;-64
2023/10/21 03:43:50;;;;;;;1.10;0.20;;;;;;;11.52;100.00;95108.03;5063201;28;20056;-64
2023/10/21 03:46:17;;;;;;;0.93;0.20;;;;;;;11.35;100.00;95116.91;5046608;28;20492;-65
2023/10/21 03:48:44;;;;;;;0.30;0.17;;;;;;;11.23;100.00;95115.56;5048607;28;20071;-64
2023/10/21 03:51:12;;;;;;;0.10;0.10;;;;;;;11.12;100.00;95123.16;5046154;28;20127;-64
2023/10/21 03:53:46;;;;;;;2.95;0.38;;;;;;;11.01;100.00;95122.63;5055210;28;20055;-65
2023/10/21 03:56:13;;;;;;;0.68;0.30;;;;;;;10.86;100.00;95123.00;5056713;28;20036;-64
2023/10/21 03:58:41;;;;;;;1.45;0.32;;;;;;;10.77;100.00;95131.88;5052686;28;20138;-64
2023/10/21 04:01:08;;;;;;;1.15;0.32;;;;;;;10.63;100.00;95140.06;5044558;28;20069;-64
2023/10/21 04:03:35;;;;;;;1.75;0.20;;;;;;;10.54;100.00;95148.13;5061468;28;20048;-64
2023/10/21 04:06:02;;;;;;;2.20;0.30;;;;;;;10.39;100.00;95148.44;5047247;28;20035;-64
2023/10/21 04:08:30;;;;;;;0.55;0.30;;;;;;;10.22;100.00;95160.72;5051768;28;20041;-64
2023/10/21 04:10:56;;;;;;;0.40;0.28;;;;;;;10.16;100.00;95153.81;5058592;28;20060;-64
2023/10/21 04:13:23;;;;;;;0.47;0.30;;;;;;;9.89;100.00;95171.69;5043734;28;20116;-64
2023/10/21 04:15:49;;;;;;;0.77;0.40;;;;;;;9.79;100.00;95185.38;5051543;28;20044;-64
2023/10/21 04:18:17;;;;;;;0.55;0.25;;;;;;;9.74;100.00;95195.19;5044140;28;20041;-64
2023/10/21 04:20:45;;;;;;;0.38;0.35;;;;;;;9.77;100.00;95191.13;5037794;28;20427;-64
2023/10/21 04:23:12;;;;;;;0.30;0.30;;;;;;;9.79;100.00;95205.13;5050665;28;20041;-64
2023/10/21 04:25:39;;;;;;;0.60;0.32;;;;;;;9.88;100.00;95213.34;5043269;28;20058;-65
2023/10/21 04:28:06;;;;;;;1.83;0.40;;;;;;;9.88;100.00;95216.81;5044446;28;20065;-64
2023/10/21 04:30:34;;;;;;;0.30;0.20;;;;;;;9.94;100.00;95209.41;5043150;28;20041;-64
2023/10/21 04:33:01;;;;;;;0.60;0.30;;;;;;;10.09;100.00;95213.72;5043238;28;20045;-64
2023/10/21 04:35:28;;;;;;;1.35;0.30;;;;;;;10.27;100.00;95217.41;5042653;28;20037;-64
2023/10/21 04:37:59;;;;;;;0.52;0.20;;;;;;;10.38;100.00;95215.28;5041966;28;20500;-65
2023/10/21 04:40:25;;;;;;;0.63;0.20;;;;;;;10.59;100.00;95211.34;5042352;28;20056;-63
2023/10/21 04:42:52;;;;;;;0.57;0.20;;;;;;;10.80;100.00;95208.97;5046362;28;20094;-63
2023/10/21 04:45:18;;;;;;;0.90;0.28;;;;;;;10.93;100.00;95213.53;5039977;28;20043;-65
2023/10/21 04:47:45;;;;;;;0.45;0.25;;;;;;;11.07;100.00;95215.38;5043254;28;20049;-65
2023/10/21 04:50:11;;;;;;;1.20;0.32;;;;;;;11.05;100.00;95221.09;5044946;28;20045;-64
2023/10/21 04:52:38;;;;;;;1.33;0.30;;;;;;;11.22;100.00;95216.91;5049693;28;20053;-63
2023/10/21 04:55:05;;;;;;;0.30;0.30;;;;;;;11.14;100.00;95223.88;5045662;28;20124;-65
2023/10/21 04:57:32;;;;;;;0.98;0.40;;;;;;;11.13;100.00;95221.47;5047046;28;20041;-65
2023/10/21 04:59:59;;;;;;;2.10;0.30;;;;;;;11.24;100.00;95238.28;5047870;28;20037;-64
2023/10/21 05:02:26;;;;;;;0.50;0.32;;;;;;;11.29;100.00;95230.81;5045738;28;20048;-63
2023/10/21 05:04:53;;;;;;;0.63;0.20;;;;;;;11.50;100.00;95232.22;5047409;28;20041;-64
2023/10/21 05:07:19;;;;;;;1.02;0.40;;;;;;;11.45;100.00;95238.53;5046153;28;20254;-64
2023/10/21 05:09:46;;;;;;;3.15;0.35;;;;;;;11.31;100.00;95234.00;5046353;28;20044;-64
2023/10/21 05:12:12;;;;;;;0.60;0.40;;;;;;;11.18;100.00;95237.59;5049516;28;20047;-64
2023/10/21 05:14:39;;;;;;;1.15;0.40;;;;;;;11.15;100.00;95244.44;5037168;28;20500;-64
2023/10/21 05:17:05;;;;;;;1.98;0.38;;;;;;;11.27;100.00;95246.56;5045294;28;20046;-65
2023/10/21 05:19:32;;;;;;;0.63;0.20;;;;;;;11.36;100.00;95248.53;5035494;28;20057;-63
2023/10/21 05:22:00;;;;;;;0.65;0.28;;;;;;;11.42;100.00;95253.53;5044807;28;20049;-63
2023/10/21 05:24:27;;;;;;;1.40;0.40;;;;;;;11.50;100.00;95256.59;5047393;28;20037;-63
2023/10/21 05:26:54;;;;;;;1.73;0.45;;;;;;;11.56;100.00;95258.88;5036881;28;20381;-63
2023/10/21 05:29:21;;;;;;;1.02;0.47;;;;;;;11.62;100.00;95261.44;5035891;28;20049;-63
2023/10/21 05:31:49;;;;;;;1.50;0.40;;;;;;;11.77;100.00;95263.75;5039108;28;20048;-64
2023/10/21 05:34:18;;;;;;;0.82;0.47;;;;;;;11.79;100.00;95269.66;5049827;28;20037;-63
2023/10/21 05:36:45;;;;;;;1.45;0.50;;;;;;;11.77;100.00;95281.94;5031957;28;20038;-64
2023/10/21 05:39:12;;;;;;;1.33;0.38;;;;;;;11.58;100.00;95286.44;5037491;28;20055;-64
2023/10/21 05:41:42;;;;;;;1.38;0.38;;;;;;;11.50;100.00;95294.53;5040751;28;20122;-63
2023/10/21 05:44:09;;;;;;;0.80;0.32;;;;;;;11.34;100.00;95307.63;5045015;28;20044;-63
2023/10/21 05:46:36;;;;;;;1.52;0.40;;;;;;;11.25;100.00;95316.53;5035942;28;20045;-64
2023/10/21 05:49:03;;;;;;;0.90;0.50;;;;;;;11.25;100.00;95319.25;5040384;28;20065;-63
2023/10/21 05:51:30;;;;;;;1.00;0.30;;;;;;;11.28;100.00;95325.94;5034464;28;20056;-64
2023/10/21 05:53:57;;;;;;;1.40;0.32;;;;;;;11.25;100.00;95334.69;5029900;28;20052;-64
2023/10/21 05:56:24;;;;;;;2.15;0.30;;;;;;;11.26;100.00;95339.78;5030408;28;20666;-64
2023/10/21 05:58:51;;;;;;;2.70;0.32;;;;;;;11.31;100.00;95345.09;5045538;28;20135;-63
2023/10/21 06:01:18;;;;;;;1.15;0.32;;;;;;;11.38;100.00;95355.50;5040509;28;20044;-63
2023/10/21 06:03:44;;;;;;;0.75;0.50;;;;;;;11.45;100.00;95371.31;5025390;28;20669;-63
2023/10/21 06:06:11;;;;;;;0.40;0.20;;;;;;;11.52;100.00;95374.41;5038335;28;20041;-64
2023/10/21 06:08:38;;;;;;;0.88;0.45;;;;;;;11.56;100.00;95371.88;5037138;28;20076;-63
2023/10/21 06:11:05;;;;;;;2.63;0.88;;;;;;;11.61;100.00;95374.47;5045266;28;20095;-64
2023/10/21 06:13:32;;;;;;;0.43;0.28;;;;;;;11.84;100.00;95371.78;5047930;28;20037;-63
2023/10/21 06:15:58;;;;;;;0.82;0.45;;;;;;;11.98;100.00;95379.84;5044489;28;20056;-64
2023/10/21 06:18:25;;;;;;;0.95;0.30;;;;;;;12.07;100.00;95382.59;5042257;28;20483;-64
2023/10/21 06:20:52;;;;;;;0.95;0.40;;;;;;;12.12;100.00;95390.63;5045703;28;20578;-64
2023/10/21 06:23:18;;;;;;;1.00;0.30;;;;;;;12.19;100.00;95401.03;5043156;28;20098;-64
2023/10/21 06:25:45;;;;;;;0.40;0.30;;;;;;;12.17;100.00;95405.97;5043107;28;20143;-64
2023/10/21 06:28:15;;;;;;;0.73;0.40;;;;;;;12.18;100.00;95411.09;5045269;28;20033;-63
2023/10/21 06:30:42;;;;;;;3.80;0.40;;;;;;;12.25;100.00;95417.97;5042227;28;20044;-63
2023/10/21 06:33:09;;;;;;;0.70;0.50;;;;;;;12.33;100.00;95414.50;5043684;28;20077;-63
2023/10/21 06:35:37;;;;;;;0.85;0.30;;;;;;;12.32;100.00;95418.34;5042249;28;20029;-64
2023/10/21 06:38:05;;;;;;;1.17;0.40;;;;;;;12.32;100.00;95421.84;5044334;28;20401;-64
2023/10/21 06:40:32;;;;;;;0.40;0.30;;;;;;;12.27;100.00;95411.13;5042783;28;20214;-64
2023/10/21 06:43:17;;;;;;;1.48;0.43;;;;;;;12.29;100.00;95419.75;5046572;28;20521;-64
2023/10/21 06:45:45;;;;;;;1.38;0.40;;;;;;;12.31;100.00;95425.66;5049171;28;20672;-63
2023/10/21 06:48:11;;;;;;;1.05;0.30;;;;;;;12.29;100.00;95424.38;5043926;28;20045;-63
2023/10/21 06:50:38;;;;;;;0.60;0.35;;;;;;;12.20;100.00;95422.41;5040786;28;20504;-64
2023/10/21 06:53:05;;;;;;;1.65;0.70;;;;;;;12.14;100.00;95431.00;5043689;28;20045;-64
2023/10/21 06:55:44;;;;;;;2.40;0.95;;;;;;;12.02;100.00;95440.47;5042518;28;20132;-63
2023/10/21 06:58:11;;;;;;;1.52;0.68;;;;;;;12.10;100.00;95439.75;5044235;28;20119;-64
2023/10/21 07:00:38;;;;;;;2.47;0.80;;;;;;;12.15;100.00;95446.16;5042560;28;20040;-64
2023/10/21 07:03:05;;;;;;;0.60;0.47;;;;;;;12.23;100.00;95453.56;5042502;28;20631;-64
2023/10/21 07:05:33;;;;;;;0.45;0.30;;;;;;;12.29;100.00;95456.94;5041622;28;20662;-63
2023/10/21 07:08:01;;;;;;;1.00;0.30;;;;;;;12.41;100.00;95459.06;5043309;28;20041;-63
2023/10/21 07:10:29;;;;;;;0.75;0.32;;;;;;;12.44;100.00;95463.88;5042931;28;20041;-64
2023/10/21 07:12:57;;;;;;;1.45;0.40;;;;;;;12.45;100.00;95465.47;5039574;28;20041;-63
2023/10/21 07:15:27;;;;;;;0.35;0.32;;;;;;;12.43;100.00;95479.38;5040793;28;20124;-63
2023/10/21 07:17:55;;;;;;;0.75;0.30;;;;;;;12.43;100.00;95489.44;5042405;28;20068;-63
2023/10/21 07:20:22;;;;;;;0.40;0.20;;;;;;;12.42;100.00;95504.91;5044237;28;20087;-64
2023/10/21 07:22:49;;;;;;;0.55;0.25;;;;;;;12.47;100.00;95501.28;5041460;28;20051;-64
2023/10/21 07:25:18;;;;;;;0.30;0.20;;;;;;;12.53;100.00;95502.72;5042447;28;20041;-64
2023/10/21 07:27:46;;;;;;;1.00;0.28;;;;;;;12.62;100.00;95508.22;5043498;28;20041;-63
2023/10/21 07:30:13;;;;;;;1.50;0.20;;;;;;;12.67;100.00;95515.41;5043475;28;20052;-64
2023/10/21 07:32:39;;;;;;;0.45;0.20;;;;;;;12.90;100.00;95526.25;5043164;28;20094;-64
2023/10/21 07:35:07;;;;;;;1.13;0.28;;;;;;;13.12;100.00;95528.13;5042871;28;20041;-64
2023/10/21 07:37:33;;;;;;;1.17;1.08;;;;;;;13.29;100.00;95521.09;5044505;28;20048;-64
2023/10/21 07:40:00;;;;;;;1.30;0.35;;;;;;;13.29;100.00;95527.34;5042397;28;20071;-64
2023/10/21 07:42:27;;;;;;;2.85;0.50;;;;;;;13.40;100.00;95536.03;5042303;28;20366;-64
2023/10/21 07:44:53;;;;;;;1.02;0.10;;;;;;;13.53;100.00;95532.41;5042583;28;20047;-63
2023/10/21 07:47:20;;;;;;;1.00;0.20;;;;;;;13.53;100.00;95529.69;5042475;28;20049;-64
2023/10/21 07:49:47;;;;;;;0.50;0.20;;;;;;;13.60;100.00;95540.09;5041789;28;20076;-63
2023/10/21 07:52:13;;;;;;;0.25;0.20;;;;;;;13.77;99.49;95543.97;5041556;28;20048;-64
2023/10/21 07:54:40;;;;;;;2.50;0.20;;;;;;;13.85;100.00;95553.25;5041510;28;20045;-64
2023/10/21 07:57:08;;;;;;;0.30;0.20;;;;;;;13.86;98.99;95563.03;5045088;28;20510;-63
2023/10/21 07:59:34;;;;;;;0.80;0.20;;;;;;;13.93;97.88;95568.00;5042300;28;20053;-63
2023/10/21 08:02:01;;;;;;;0.50;0.20;;;;;;;13.97;97.72;95580.63;5042016;28;20041;-64
2023/10/21 08:04:28;;;;;;;0.10;0.10;;;;;;;14.07;96.59;95590.41;5041643;28;20049;-64
2023/10/21 08:06:55;;;;;;;2.80;0.30;;;;;;;14.15;95.44;95597.78;5042158;28;20041;-64
2023/10/21 08:09:22;;;;;;;0.57;0.20;;;;;;;14.29;95.69;95594.09;5042388;28;20654;-63
2023/10/21 08:11:49;;;;;;;0.88;0.25;;;;;;;14.44;93.92;95601.81;5042975;28;20051;-64
2023/10/21 08:14:16;;;;;;;1.02;0.22;;;;;;;14.50;92.11;95599.72;5050778;28;20094;-63
2023/10/21 08:16:46;;;;;;;0.55;0.40;;;;;;;14.60;92.94;95597.78;5042244;28;20776;-64
2023/10/21 08:19:12;;;;;;;5.57;0.32;;;;;;;14.74;92.21;95608.53;5036308;28;20845;-62
2023/10/21 08:21:39;;;;;;;2.08;0.30;;;;;;;14.79;88.87;95622.81;5034843;28;20140;-62
2023/10/21 08:24:07;;;;;;;1.80;0.13;;;;;;;14.74;87.12;95624.88;5045277;28;20040;-63
2023/10/21 08:26:34;;;;;;;0.47;0.20;;;;;;;14.82;88.35;95621.38;5035268;28;20046;-62
2023/10/21 08:29:01;;;;;;;0.47;0.13;;;;;;;14.94;89.18;95624.22;5041793;28;20051;-63
2023/10/21 08:31:28;;;;;;;0.35;0.00;;;;;;;15.04;86.79;95639.41;5042096;28;20052;-62
2023/10/21 08:33:55;;;;;;;1.45;0.32;;;;;;;15.04;86.55;95631.25;5042007;28;20045;-62
2023/10/21 08:36:22;;;;;;;0.17;0.10;;;;;;;15.16;85.79;95644.22;5040004;28;20759;-64
2023/10/21 08:38:52;;;;;;;2.03;0.22;;;;;;;15.21;85.85;95645.97;5048264;28;20722;-63
2023/10/21 08:41:19;;;;;;;0.65;0.20;;;;;;;15.37;84.56;95642.72;5046581;28;20098;-63
2023/10/21 08:43:48;;;;;;;1.20;0.22;;;;;;;15.41;84.94;95644.44;5042392;28;20524;-64
2023/10/21 08:46:16;;;;;;;0.68;0.20;;;;;;;15.44;85.26;95626.66;5043290;28;20033;-63
2023/10/21 08:48:45;;;;;;;0.47;0.20;;;;;;;15.49;81.03;95631.94;5042046;28;20044;-63
2023/10/21 08:51:22;;;;;;;0.63;0.10;;;;;;;15.69;83.01;95640.50;5043261;28;20045;-64
2023/10/21 08:53:52;;;;;;;0.90;0.30;;;;;;;15.62;81.47;95638.28;5043611;28;20048;-63
2023/10/21 08:56:19;;;;;;;0.50;0.10;;;;;;;15.58;82.55;95649.06;5041925;28;20033;-64
2023/10/21 08:58:46;;;;;;;1.08;0.25;;;;;;;15.51;79.63;95656.94;5044299;28;20400;-63
2023/10/21 09:01:15;;;;;;;3.05;0.10;;;;;;;15.64;80.28;95663.31;5043641;28;20083;-63
2023/10/21 09:03:42;;;;;;;0.35;0.10;;;;;;;15.60;78.37;95673.28;5042622;28;20083;-64
2023/10/21 09:06:10;;;;;;;1.02;0.13;;;;;;;15.73;79.12;95693.28;5040455;28;20056;-64
2023/10/21 09:08:41;;;;;;;0.85;0.10;;;;;;;15.59;78.36;95697.03;5041736;28;20041;-63
2023/10/21 09:11:10;;;;;;;0.65;0.10;;;;;;;15.77;78.73;95696.97;5041464;28;20045;-64
2023/10/21 09:13:39;;;;;;;0.75;0.20;;;;;;;15.67;76.27;95700.06;5042136;28;20886;-64
2023/10/21 09:16:26;;;;;;;0.90;0.10;;;;;;;15.53;76.59;95705.72;5046937;28;20048;-64
2023/10/21 09:18:57;;;;;;;0.73;0.00;;;;;;;15.55;76.69;95706.19;5044417;28;20091;-63
2023/10/21 09:21:42;;;;;;;1.03;0.20;;;;;;;15.56;77.55;95705.84;5040447;28;20048;-64
2023/10/21 09:24:19;;;;;;;1.38;0.20;;;;;;;15.66;78.10;95701.19;5036910;28;20272;-64
2023/10/21 09:26:47;;;;;;;0.30;0.10;;;;;;;15.77;77.31;95712.53;5045055;28;20312;-64
2023/10/21 09:29:19;;;;;;;0.30;0.10;;;;;;;15.69;76.23;95706.78;5043243;28;20037;-64
2023/10/21 09:31:54;;;;;;;2.63;0.30;;;;;;;15.71;76.84;95696.31;5036773;28;20047;-54
2023/10/21 09:34:25;;;;;;;0.80;0.20;;;;;;;15.86;74.75;95703.16;5042087;28;20044;-58
2023/10/21 09:36:57;;;;;;;2.95;0.28;;;;;;;16.07;73.53;95705.19;5042758;28;20051;-55
2023/10/21 09:39:26;;;;;;;0.90;0.30;;;;;;;16.02;72.47;95723.69;5046437;28;20056;-58
2023/10/21 09:41:53;;;;;;;0.98;0.10;;;;;;;15.78;72.40;95703.22;5042382;28;20045;-57
2023/10/21 09:44:20;;;;;;;1.45;0.40;;;;;;;15.63;73.23;95715.47;5048792;28;20534;-56
2023/10/21 09:46:47;;;;;;;1.63;0.80;;;;;;;15.48;74.93;95718.41;5047199;28;20112;-54
2023/10/21 09:49:15;;;;;;;1.00;0.10;;;;;;;15.45;73.66;95715.53;5048520;28;20055;-56
2023/10/21 09:52:01;;;;;;;0.98;0.20;;;;;;;15.33;73.49;95719.72;5047432;28;20045;-56
2023/10/21 09:54:43;;;;;;;0.77;0.20;;;;;;;15.34;72.35;95718.56;5044908;28;20393;-57
2023/10/21 09:57:14;;;;;;;0.65;0.20;;;;;;;15.24;72.84;95718.94;5043703;28;20041;-56
2023/10/21 09:59:40;;;;;;;2.10;0.30;;;;;;;15.28;75.36;95719.88;5045583;28;20639;-56
2023/10/21 10:02:14;;;;;;;5.18;0.75;;;;;;;15.28;74.47;95719.88;5043665;28;20721;-56
2023/10/21 10:04:40;;;;;;;0.93;0.20;;;;;;;15.34;73.28;95725.97;5048601;28;20044;-56
2023/10/21 10:07:07;;;;;;;1.42;0.38;;;;;;;15.43;73.52;95723.22;5044544;28;20037;-57
2023/10/21 10:09:40;;;;;;;0.83;0.20;;;;;;;15.47;70.99;95716.78;5042652;28;20505;-64
2023/10/21 10:12:16;;;;;;;2.25;0.15;;;;;;;15.46;69.78;95715.19;5039408;28;20041;-64
2023/10/21 10:14:43;;;;;;;1.75;0.20;;;;;;;15.36;69.59;95707.34;5042504;28;20447;-64
2023/10/21 10:17:10;;;;;;;1.85;0.20;;;;;;;15.35;69.52;95713.94;5044333;28;20047;-63
2023/10/21 10:19:41;;;;;;;1.50;0.52;;;;;;;15.21;70.02;95717.66;5042172;28;20045;-64
2023/10/21 10:22:28;;;;;;;1.73;0.30;;;;;;;15.20;69.08;95734.31;5044550;28;20057;-63
2023/10/21 10:24:55;;;;;;;1.80;0.30;;;;;;;15.24;69.59;95732.56;5041111;28;20049;-65
2023/10/21 10:27:24;;;;;;;0.75;0.20;;;;;;;15.36;69.88;95737.34;5045932;28;20538;-64
2023/10/21 10:29:51;;;;;;;1.05;0.28;;;;;;;15.47;68.43;95727.72;5044105;28;20055;-64
2023/10/21 10:32:20;;;;;;;1.05;0.20;;;;;;;15.50;67.90;95722.72;5045338;28;20637;-64
2023/10/21 10:34:53;;;;;;;1.17;0.30;;;;;;;15.65;68.62;95732.31;5042667;28;20059;-64
2023/10/21 10:37:32;;;;;;;1.08;0.60;;;;;;;15.87;67.46;95742.19;5040180;28;20532;-62
2023/10/21 10:39:58;;;;;;;2.30;0.45;;;;;;;15.81;65.88;95732.59;5038634;28;20049;-64
2023/10/21 10:42:29;;;;;;;1.70;0.22;;;;;;;15.90;65.72;95748.91;5037420;28;20041;-65
2023/10/21 10:44:55;;;;;;;1.57;0.27;;;;;;;15.77;66.30;95748.81;5056776;28;20099;-65
2023/10/21 10:47:22;;;;;;;1.30;0.38;;;;;;;15.69;68.30;95746.91;5047656;28;20048;-64
2023/10/21 10:49:57;;;;;;;1.48;0.38;;;;;;;15.65;67.61;95746.75;5037158;28;20060;-64
2023/10/21 10:52:33;;;;;;;0.55;0.15;;;;;;;15.60;68.73;95741.47;5046100;28;20143;-65
2023/10/21 10:55:02;;;;;;;1.60;0.30;;;;;;;15.56;68.35;95748.72;5040260;28;20048;-64
2023/10/21 10:57:29;;;;;;;1.33;0.17;;;;;;;15.54;68.33;95754.47;5047431;28;20070;-64
2023/10/21 10:59:56;;;;;;;0.55;0.15;;;;;;;15.49;67.61;95754.66;5043000;28;20107;-64
2023/10/21 11:02:27;;;;;;;1.35;0.40;;;;;;;15.48;68.24;95750.31;5040359;28;20037;-64
2023/10/21 11:04:56;;;;;;;0.90;0.20;;;;;;;15.54;68.37;95750.94;5041110;28;20055;-65
2023/10/21 11:07:22;;;;;;;1.92;0.50;;;;;;;15.57;68.25;95742.94;5046094;28;20040;-65
2023/10/21 11:09:59;;;;;;;1.88;0.20;;;;;;;15.43;68.09;95748.56;5050415;28;20036;-64
2023/10/21 11:12:27;;;;;;;0.80;0.30;;;;;;;15.40;69.74;95753.88;5045445;28;20131;-65
2023/10/21 11:14:54;;;;;;;1.77;0.32;;;;;;;15.31;70.67;95753.88;5040150;28;20120;-65
2023/10/21 11:17:21;;;;;;;0.65;0.20;;;;;;;15.37;69.97;95743.63;5043368;28;20044;-64
2023/10/21 11:19:47;;;;;;;2.22;0.60;;;;;;;15.57;70.18;95742.13;5050534;28;20049;-64
2023/10/21 11:22:20;;;;;;;1.02;0.30;;;;;;;15.54;69.52;95738.13;5043320;28;20053;-64
2023/10/21 11:24:47;;;;;;;2.67;0.65;;;;;;;15.45;67.87;95743.56;5042987;28;20128;-64
2023/10/21 11:27:15;;;;;;;3.08;0.20;;;;;;;15.63;67.33;95751.75;5044352;28;20045;-64
2023/10/21 11:29:42;;;;;;;1.02;0.20;;;;;;;15.62;66.64;95743.88;5050095;28;20094;-65
2023/10/21 11:32:13;;;;;;;2.30;0.30;;;;;;;15.62;66.99;95741.94;5045062;28;20497;-65
2023/10/21 11:34:47;;;;;;;1.30;0.30;;;;;;;15.76;68.06;95739.03;5049471;28;20122;-64